sensor_id;sensor_type;location;lat;lon;timestamp;temperature;humidity
39975;DHT22;25652;52.852;6.602;2024-01-27T00:01:51;4.40;89.70
39975;DHT22;25652;52.852;6.602;2024-01-27T00:04:16;4.50;89.80
39975;DHT22;25652;52.852;6.602;2024-01-27T00:06:42;4.40;89.60
39975;DHT22;25652;52.852;6.602;2024-01-27T00:09:07;4.40;89.80
39975;DHT22;25652;52.852;6.602;2024-01-27T00:11:33;4.40;89.80
39975;DHT22;25652;52.852;6.602;2024-01-27T00:13:58;4.40;89.70
39975;DHT22;25652;52.852;6.602;2024-01-27T00:16:25;4.40;89.80
39975;DHT22;25652;52.852;6.602;2024-01-27T00:18:50;4.40;89.60
39975;DHT22;25652;52.852;6.602;2024-01-27T00:21:16;4.40;89.60
39975;DHT22;25652;52.852;6.602;2024-01-27T00:23:41;4.30;89.70
39975;DHT22;25652;52.852;6.602;2024-01-27T00:26:07;4.30;89.60
39975;DHT22;25652;52.852;6.602;2024-01-27T00:28:32;4.30;89.60
39975;DHT22;25652;52.852;6.602;2024-01-27T00:30:58;4.30;89.70
39975;DHT22;25652;52.852;6.602;2024-01-27T00:33:23;4.30;89.60
39975;DHT22;25652;52.852;6.602;2024-01-27T00:35:49;4.30;89.50
39975;DHT22;25652;52.852;6.602;2024-01-27T00:38:14;4.30;89.50
39975;DHT22;25652;52.852;6.602;2024-01-27T00:40:40;4.20;89.50
39975;DHT22;25652;52.852;6.602;2024-01-27T00:43:05;4.20;89.60
39975;DHT22;25652;52.852;6.602;2024-01-27T00:45:31;4.20;89.80
39975;DHT22;25652;52.852;6.602;2024-01-27T00:47:57;4.20;89.60
39975;DHT22;25652;52.852;6.602;2024-01-27T00:50:23;4.20;89.50
39975;DHT22;25652;52.852;6.602;2024-01-27T00:52:48;4.20;89.50
39975;DHT22;25652;52.852;6.602;2024-01-27T00:55:14;4.20;89.60
39975;DHT22;25652;52.852;6.602;2024-01-27T00:57:39;4.10;89.50
39975;DHT22;25652;52.852;6.602;2024-01-27T01:00:07;4.10;89.50
39975;DHT22;25652;52.852;6.602;2024-01-27T01:02:33;4.10;89.50
39975;DHT22;25652;52.852;6.602;2024-01-27T01:04:58;4.10;89.60
39975;DHT22;25652;52.852;6.602;2024-01-27T01:07:24;4.10;89.50
39975;DHT22;25652;52.852;6.602;2024-01-27T01:09:49;4.00;89.50
39975;DHT22;25652;52.852;6.602;2024-01-27T01:12:15;4.00;89.50
39975;DHT22;25652;52.852;6.602;2024-01-27T01:14:41;4.00;89.40
39975;DHT22;25652;52.852;6.602;2024-01-27T01:17:06;4.00;89.50
39975;DHT22;25652;52.852;6.602;2024-01-27T01:19:32;4.00;90.00
39975;DHT22;25652;52.852;6.602;2024-01-27T01:21:57;3.90;89.50
39975;DHT22;25652;52.852;6.602;2024-01-27T01:24:22;4.00;89.50
39975;DHT22;25652;52.852;6.602;2024-01-27T01:26:48;4.20;90.00
39975;DHT22;25652;52.852;6.602;2024-01-27T01:29:14;5.00;89.00
39975;DHT22;25652;52.852;6.602;2024-01-27T01:31:42;5.80;87.10
39975;DHT22;25652;52.852;6.602;2024-01-27T01:34:07;6.20;85.00
39975;DHT22;25652;52.852;6.602;2024-01-27T01:36:32;6.20;84.10
39975;DHT22;25652;52.852;6.602;2024-01-27T01:38:58;6.10;84.00
39975;DHT22;25652;52.852;6.602;2024-01-27T01:41:24;5.90;84.60
39975;DHT22;25652;52.852;6.602;2024-01-27T01:43:50;5.70;85.00
39975;DHT22;25652;52.852;6.602;2024-01-27T01:46:15;5.60;85.30
39975;DHT22;25652;52.852;6.602;2024-01-27T01:48:41;5.40;85.70
39975;DHT22;25652;52.852;6.602;2024-01-27T01:51:06;5.30;86.10
39975;DHT22;25652;52.852;6.602;2024-01-27T01:53:32;5.20;86.50
39975;DHT22;25652;52.852;6.602;2024-01-27T01:55:58;5.00;86.80
39975;DHT22;25652;52.852;6.602;2024-01-27T01:58:23;4.90;87.10
39975;DHT22;25652;52.852;6.602;2024-01-27T02:00:49;4.90;87.30
39975;DHT22;25652;52.852;6.602;2024-01-27T02:03:14;4.80;87.40
39975;DHT22;25652;52.852;6.602;2024-01-27T02:05:40;4.80;87.60
39975;DHT22;25652;52.852;6.602;2024-01-27T02:08:06;4.70;87.60
39975;DHT22;25652;52.852;6.602;2024-01-27T02:10:31;4.60;87.80
39975;DHT22;25652;52.852;6.602;2024-01-27T02:12:57;4.60;88.00
39975;DHT22;25652;52.852;6.602;2024-01-27T02:15:22;4.60;88.20
39975;DHT22;25652;52.852;6.602;2024-01-27T02:17:48;4.50;88.20
39975;DHT22;25652;52.852;6.602;2024-01-27T02:20:13;4.50;88.30
39975;DHT22;25652;52.852;6.602;2024-01-27T02:22:39;4.40;88.30
39975;DHT22;25652;52.852;6.602;2024-01-27T02:25:04;4.40;88.40
39975;DHT22;25652;52.852;6.602;2024-01-27T02:27:30;4.40;88.50
39975;DHT22;25652;52.852;6.602;2024-01-27T02:29:56;4.30;88.50
39975;DHT22;25652;52.852;6.602;2024-01-27T02:32:21;4.30;88.60
39975;DHT22;25652;52.852;6.602;2024-01-27T02:34:47;4.30;88.70
39975;DHT22;25652;52.852;6.602;2024-01-27T02:37:12;4.30;88.80
39975;DHT22;25652;52.852;6.602;2024-01-27T02:39:38;4.20;88.70
39975;DHT22;25652;52.852;6.602;2024-01-27T02:42:03;4.20;88.90
39975;DHT22;25652;52.852;6.602;2024-01-27T02:44:29;4.10;88.90
39975;DHT22;25652;52.852;6.602;2024-01-27T02:46:54;4.20;89.10
39975;DHT22;25652;52.852;6.602;2024-01-27T02:49:20;4.10;89.00
39975;DHT22;25652;52.852;6.602;2024-01-27T02:51:45;4.10;89.10
39975;DHT22;25652;52.852;6.602;2024-01-27T02:54:11;4.10;89.10
39975;DHT22;25652;52.852;6.602;2024-01-27T02:56:36;4.10;89.10
39975;DHT22;25652;52.852;6.602;2024-01-27T02:59:02;4.00;89.00
39975;DHT22;25652;52.852;6.602;2024-01-27T03:01:27;4.00;89.10
39975;DHT22;25652;52.852;6.602;2024-01-27T03:03:53;4.00;89.20
39975;DHT22;25652;52.852;6.602;2024-01-27T03:06:18;4.00;89.20
39975;DHT22;25652;52.852;6.602;2024-01-27T03:08:44;4.00;89.20
39975;DHT22;25652;52.852;6.602;2024-01-27T03:11:09;3.90;89.10
39975;DHT22;25652;52.852;6.602;2024-01-27T03:13:35;3.90;89.80
39975;DHT22;25652;52.852;6.602;2024-01-27T03:16:00;4.00;89.60
39975;DHT22;25652;52.852;6.602;2024-01-27T03:18:26;4.70;88.90
39975;DHT22;25652;52.852;6.602;2024-01-27T03:20:51;5.50;87.10
39975;DHT22;25652;52.852;6.602;2024-01-27T03:23:17;5.80;85.10
39975;DHT22;25652;52.852;6.602;2024-01-27T03:25:42;5.80;84.30
39975;DHT22;25652;52.852;6.602;2024-01-27T03:28:08;5.60;84.40
39975;DHT22;25652;52.852;6.602;2024-01-27T03:30:33;5.50;84.80
39975;DHT22;25652;52.852;6.602;2024-01-27T03:32:59;5.40;85.20
39975;DHT22;25652;52.852;6.602;2024-01-27T03:35:24;5.20;85.40
39975;DHT22;25652;52.852;6.602;2024-01-27T03:37:50;5.10;85.70
39975;DHT22;25652;52.852;6.602;2024-01-27T03:40:15;5.00;86.00
39975;DHT22;25652;52.852;6.602;2024-01-27T03:42:40;4.90;86.20
39975;DHT22;25652;52.852;6.602;2024-01-27T03:45:06;4.80;86.50
39975;DHT22;25652;52.852;6.602;2024-01-27T03:47:32;4.70;86.80
39975;DHT22;25652;52.852;6.602;2024-01-27T03:49:57;4.90;87.90
39975;DHT22;25652;52.852;6.602;2024-01-27T03:52:23;5.60;86.90
39975;DHT22;25652;52.852;6.602;2024-01-27T03:54:48;6.30;85.20
39975;DHT22;25652;52.852;6.602;2024-01-27T03:57:14;6.50;83.40
39975;DHT22;25652;52.852;6.602;2024-01-27T03:59:42;6.40;82.70
39975;DHT22;25652;52.852;6.602;2024-01-27T04:13:49;5.50;85.10
39975;DHT22;25652;52.852;6.602;2024-01-27T04:16:14;5.40;85.50
39975;DHT22;25652;52.852;6.602;2024-01-27T04:18:42;5.20;85.80
39975;DHT22;25652;52.852;6.602;2024-01-27T04:30:16;4.90;86.80
39975;DHT22;25652;52.852;6.602;2024-01-27T04:32:41;4.80;87.00
39975;DHT22;25652;52.852;6.602;2024-01-27T04:35:10;4.70;87.20
39975;DHT22;25652;52.852;6.602;2024-01-27T04:37:37;4.70;87.40
39975;DHT22;25652;52.852;6.602;2024-01-27T04:40:04;4.60;87.40
39975;DHT22;25652;52.852;6.602;2024-01-27T04:42:30;4.60;87.50
39975;DHT22;25652;52.852;6.602;2024-01-27T04:44:55;4.60;87.50
39975;DHT22;25652;52.852;6.602;2024-01-27T04:47:21;4.50;87.50
39975;DHT22;25652;52.852;6.602;2024-01-27T04:49:46;4.50;87.50
39975;DHT22;25652;52.852;6.602;2024-01-27T04:52:12;4.50;87.60
39975;DHT22;25652;52.852;6.602;2024-01-27T04:54:37;4.40;87.60
39975;DHT22;25652;52.852;6.602;2024-01-27T04:57:03;4.40;87.60
39975;DHT22;25652;52.852;6.602;2024-01-27T04:59:28;4.40;87.70
39975;DHT22;25652;52.852;6.602;2024-01-27T05:01:54;4.30;87.60
39975;DHT22;25652;52.852;6.602;2024-01-27T05:04:19;4.30;87.60
39975;DHT22;25652;52.852;6.602;2024-01-27T05:06:45;4.30;87.80
39975;DHT22;25652;52.852;6.602;2024-01-27T05:09:10;4.20;87.70
39975;DHT22;25652;52.852;6.602;2024-01-27T05:11:36;4.20;87.80
39975;DHT22;25652;52.852;6.602;2024-01-27T05:14:01;4.20;87.80
39975;DHT22;25652;52.852;6.602;2024-01-27T05:16:27;4.20;87.90
39975;DHT22;25652;52.852;6.602;2024-01-27T05:18:53;4.10;87.90
39975;DHT22;25652;52.852;6.602;2024-01-27T05:21:19;4.10;88.00
39975;DHT22;25652;52.852;6.602;2024-01-27T05:23:44;4.10;87.90
39975;DHT22;25652;52.852;6.602;2024-01-27T05:26:10;4.00;87.90
39975;DHT22;25652;52.852;6.602;2024-01-27T05:28:35;4.00;87.90
39975;DHT22;25652;52.852;6.602;2024-01-27T05:31:01;4.00;88.10
39975;DHT22;25652;52.852;6.602;2024-01-27T05:33:26;3.90;88.20
39975;DHT22;25652;52.852;6.602;2024-01-27T05:35:52;3.90;88.20
39975;DHT22;25652;52.852;6.602;2024-01-27T05:38:17;4.00;88.70
39975;DHT22;25652;52.852;6.602;2024-01-27T05:40:43;4.70;88.00
39975;DHT22;25652;52.852;6.602;2024-01-27T05:43:08;5.40;86.30
39975;DHT22;25652;52.852;6.602;2024-01-27T05:45:34;5.50;85.40
39975;DHT22;25652;52.852;6.602;2024-01-27T05:47:59;5.50;84.30
39975;DHT22;25652;52.852;6.602;2024-01-27T05:50:25;5.30;84.60
39975;DHT22;25652;52.852;6.602;2024-01-27T05:52:51;5.20;84.70
39975;DHT22;25652;52.852;6.602;2024-01-27T05:55:17;5.10;85.10
39975;DHT22;25652;52.852;6.602;2024-01-27T05:57:42;5.00;85.30
39975;DHT22;25652;52.852;6.602;2024-01-27T06:00:08;4.90;85.60
39975;DHT22;25652;52.852;6.602;2024-01-27T06:02:34;4.70;85.90
39975;DHT22;25652;52.852;6.602;2024-01-27T06:04:59;4.60;86.20
39975;DHT22;25652;52.852;6.602;2024-01-27T06:07:24;4.60;86.40
39975;DHT22;25652;52.852;6.602;2024-01-27T06:09:50;4.80;87.60
39975;DHT22;25652;52.852;6.602;2024-01-27T06:12:15;5.50;86.40
39975;DHT22;25652;52.852;6.602;2024-01-27T06:14:41;5.90;84.40
39975;DHT22;25652;52.852;6.602;2024-01-27T06:17:06;5.90;83.50
39975;DHT22;25652;52.852;6.602;2024-01-27T06:19:32;5.70;83.80
39975;DHT22;25652;52.852;6.602;2024-01-27T06:21:57;5.50;84.10
39975;DHT22;25652;52.852;6.602;2024-01-27T06:24:23;5.40;84.40
39975;DHT22;25652;52.852;6.602;2024-01-27T06:26:48;5.30;84.70
39975;DHT22;25652;52.852;6.602;2024-01-27T06:29:14;5.20;85.10
39975;DHT22;25652;52.852;6.602;2024-01-27T06:31:39;5.10;85.30
39975;DHT22;25652;52.852;6.602;2024-01-27T06:34:05;5.00;85.60
39975;DHT22;25652;52.852;6.602;2024-01-27T06:36:31;4.90;85.90
39975;DHT22;25652;52.852;6.602;2024-01-27T06:38:56;4.80;86.00
39975;DHT22;25652;52.852;6.602;2024-01-27T06:41:22;4.80;86.70
39975;DHT22;25652;52.852;6.602;2024-01-27T06:43:47;5.30;86.60
39975;DHT22;25652;52.852;6.602;2024-01-27T06:46:13;5.90;84.90
39975;DHT22;25652;52.852;6.602;2024-01-27T06:48:38;5.90;83.60
39975;DHT22;25652;52.852;6.602;2024-01-27T06:51:04;5.90;83.70
39975;DHT22;25652;52.852;6.602;2024-01-27T06:53:30;5.70;83.90
39975;DHT22;25652;52.852;6.602;2024-01-27T06:55:55;5.60;84.20
39975;DHT22;25652;52.852;6.602;2024-01-27T06:58:21;5.50;84.40
39975;DHT22;25652;52.852;6.602;2024-01-27T07:00:46;5.30;84.60
39975;DHT22;25652;52.852;6.602;2024-01-27T07:03:12;5.20;84.90
39975;DHT22;25652;52.852;6.602;2024-01-27T07:05:37;5.10;85.10
39975;DHT22;25652;52.852;6.602;2024-01-27T07:08:03;5.10;85.50
39975;DHT22;25652;52.852;6.602;2024-01-27T07:10:28;5.00;85.60
39975;DHT22;25652;52.852;6.602;2024-01-27T07:12:54;5.00;86.60
39975;DHT22;25652;52.852;6.602;2024-01-27T07:15:19;5.70;85.90
39975;DHT22;25652;52.852;6.602;2024-01-27T07:17:45;6.40;84.40
39975;DHT22;25652;52.852;6.602;2024-01-27T07:20:11;7.00;82.80
39975;DHT22;25652;52.852;6.602;2024-01-27T07:22:36;7.20;80.90
39975;DHT22;25652;52.852;6.602;2024-01-27T07:25:02;7.20;80.30
39975;DHT22;25652;52.852;6.602;2024-01-27T07:27:27;6.90;80.90
39975;DHT22;25652;52.852;6.602;2024-01-27T07:29:53;6.70;81.50
39975;DHT22;25652;52.852;6.602;2024-01-27T07:32:18;6.50;82.20
39975;DHT22;25652;52.852;6.602;2024-01-27T07:34:44;6.30;82.50
39975;DHT22;25652;52.852;6.602;2024-01-27T07:37:09;6.10;83.70
39975;DHT22;25652;52.852;6.602;2024-01-27T07:39:35;6.00;83.60
39975;DHT22;25652;52.852;6.602;2024-01-27T07:42:01;5.80;83.90
39975;DHT22;25652;52.852;6.602;2024-01-27T07:44:27;5.70;84.30
39975;DHT22;25652;52.852;6.602;2024-01-27T07:46:52;5.60;84.50
39975;DHT22;25652;52.852;6.602;2024-01-27T07:49:18;5.50;84.70
39975;DHT22;25652;52.852;6.602;2024-01-27T07:51:43;5.40;85.00
39975;DHT22;25652;52.852;6.602;2024-01-27T07:54:09;5.40;85.20
39975;DHT22;25652;52.852;6.602;2024-01-27T07:56:35;5.30;85.30
39975;DHT22;25652;52.852;6.602;2024-01-27T07:59:00;5.20;85.50
39975;DHT22;25652;52.852;6.602;2024-01-27T08:01:26;5.20;85.60
39975;DHT22;25652;52.852;6.602;2024-01-27T08:03:51;5.10;85.70
39975;DHT22;25652;52.852;6.602;2024-01-27T08:06:18;5.00;85.90
39975;DHT22;25652;52.852;6.602;2024-01-27T08:08:48;5.00;85.90
39975;DHT22;25652;52.852;6.602;2024-01-27T08:11:15;5.00;85.90
39975;DHT22;25652;52.852;6.602;2024-01-27T08:13:41;5.00;86.00
39975;DHT22;25652;52.852;6.602;2024-01-27T08:16:07;4.90;86.00
39975;DHT22;25652;52.852;6.602;2024-01-27T08:18:32;4.90;86.00
39975;DHT22;25652;52.852;6.602;2024-01-27T08:21:00;4.90;86.00
39975;DHT22;25652;52.852;6.602;2024-01-27T08:23:25;4.90;86.20
39975;DHT22;25652;52.852;6.602;2024-01-27T08:25:51;4.90;86.00
39975;DHT22;25652;52.852;6.602;2024-01-27T08:28:16;4.90;86.00
39975;DHT22;25652;52.852;6.602;2024-01-27T08:30:41;4.90;86.00
39975;DHT22;25652;52.852;6.602;2024-01-27T08:33:07;4.90;85.90
39975;DHT22;25652;52.852;6.602;2024-01-27T08:35:32;4.90;86.00
39975;DHT22;25652;52.852;6.602;2024-01-27T08:37:58;4.90;86.00
39975;DHT22;25652;52.852;6.602;2024-01-27T08:40:23;4.90;86.00
39975;DHT22;25652;52.852;6.602;2024-01-27T08:42:49;4.90;86.00
39975;DHT22;25652;52.852;6.602;2024-01-27T08:45:14;4.90;86.00
39975;DHT22;25652;52.852;6.602;2024-01-27T08:47:40;5.00;86.00
39975;DHT22;25652;52.852;6.602;2024-01-27T08:50:06;5.00;85.90
39975;DHT22;25652;52.852;6.602;2024-01-27T08:52:31;5.00;85.80
39975;DHT22;25652;52.852;6.602;2024-01-27T08:54:57;5.00;85.70
39975;DHT22;25652;52.852;6.602;2024-01-27T08:57:22;5.00;85.70
39975;DHT22;25652;52.852;6.602;2024-01-27T08:59:48;5.10;85.70
39975;DHT22;25652;52.852;6.602;2024-01-27T09:02:13;5.10;85.80
39975;DHT22;25652;52.852;6.602;2024-01-27T09:04:39;5.10;86.20
39975;DHT22;25652;52.852;6.602;2024-01-27T09:07:04;5.10;85.50
39975;DHT22;25652;52.852;6.602;2024-01-27T09:09:29;5.20;85.60
39975;DHT22;25652;52.852;6.602;2024-01-27T09:11:55;5.20;85.60
39975;DHT22;25652;52.852;6.602;2024-01-27T09:14:20;5.20;85.60
39975;DHT22;25652;52.852;6.602;2024-01-27T09:16:46;5.30;85.60
39975;DHT22;25652;52.852;6.602;2024-01-27T09:19:11;5.30;85.60
39975;DHT22;25652;52.852;6.602;2024-01-27T09:21:37;5.30;85.50
39975;DHT22;25652;52.852;6.602;2024-01-27T09:24:02;5.40;85.60
39975;DHT22;25652;52.852;6.602;2024-01-27T09:26:28;5.40;85.50
39975;DHT22;25652;52.852;6.602;2024-01-27T09:28:53;5.40;85.40
39975;DHT22;25652;52.852;6.602;2024-01-27T09:31:22;5.50;85.50
39975;DHT22;25652;52.852;6.602;2024-01-27T09:33:52;5.50;85.60
39975;DHT22;25652;52.852;6.602;2024-01-27T09:36:18;5.60;85.60
39975;DHT22;25652;52.852;6.602;2024-01-27T09:38:44;5.60;85.40
39975;DHT22;25652;52.852;6.602;2024-01-27T09:41:12;5.70;85.50
39975;DHT22;25652;52.852;6.602;2024-01-27T09:43:42;5.80;85.30
39975;DHT22;25652;52.852;6.602;2024-01-27T09:46:07;5.90;85.70
39975;DHT22;25652;52.852;6.602;2024-01-27T09:48:33;5.90;85.50
39975;DHT22;25652;52.852;6.602;2024-01-27T09:50:59;5.90;85.50
39975;DHT22;25652;52.852;6.602;2024-01-27T09:53:26;6.00;86.30
39975;DHT22;25652;52.852;6.602;2024-01-27T09:55:51;6.10;85.90
39975;DHT22;25652;52.852;6.602;2024-01-27T09:58:17;6.20;85.90
39975;DHT22;25652;52.852;6.602;2024-01-27T10:00:43;6.20;86.00
39975;DHT22;25652;52.852;6.602;2024-01-27T10:03:08;6.30;86.10
39975;DHT22;25652;52.852;6.602;2024-01-27T10:05:34;6.30;85.90
39975;DHT22;25652;52.852;6.602;2024-01-27T10:08:00;6.40;86.00
39975;DHT22;25652;52.852;6.602;2024-01-27T10:10:26;6.50;86.10
39975;DHT22;25652;52.852;6.602;2024-01-27T10:12:52;6.60;86.20
39975;DHT22;25652;52.852;6.602;2024-01-27T10:15:22;6.70;86.20
39975;DHT22;25652;52.852;6.602;2024-01-27T10:17:48;6.80;86.30
39975;DHT22;25652;52.852;6.602;2024-01-27T10:20:14;6.80;86.20
39975;DHT22;25652;52.852;6.602;2024-01-27T10:22:40;6.90;86.80
39975;DHT22;25652;52.852;6.602;2024-01-27T10:25:07;7.00;86.70
39975;DHT22;25652;52.852;6.602;2024-01-27T10:27:33;7.10;86.40
39975;DHT22;25652;52.852;6.602;2024-01-27T10:29:58;7.20;86.40
39975;DHT22;25652;52.852;6.602;2024-01-27T10:32:24;7.20;86.30
39975;DHT22;25652;52.852;6.602;2024-01-27T10:35:05;7.30;86.10
39975;DHT22;25652;52.852;6.602;2024-01-27T10:37:31;7.40;86.30
39975;DHT22;25652;52.852;6.602;2024-01-27T10:40:07;7.50;86.30
39975;DHT22;25652;52.852;6.602;2024-01-27T10:42:35;7.60;86.20
39975;DHT22;25652;52.852;6.602;2024-01-27T10:45:00;7.60;86.10
39975;DHT22;25652;52.852;6.602;2024-01-27T10:47:30;7.70;86.10
39975;DHT22;25652;52.852;6.602;2024-01-27T10:49:57;7.80;86.00
39975;DHT22;25652;52.852;6.602;2024-01-27T10:52:24;7.80;86.00
39975;DHT22;25652;52.852;6.602;2024-01-27T10:54:51;8.00;86.00
39975;DHT22;25652;52.852;6.602;2024-01-27T10:57:18;8.10;86.00
39975;DHT22;25652;52.852;6.602;2024-01-27T10:59:44;8.20;86.00
39975;DHT22;25652;52.852;6.602;2024-01-27T11:02:13;8.20;85.90
39975;DHT22;25652;52.852;6.602;2024-01-27T11:04:38;8.30;85.90
39975;DHT22;25652;52.852;6.602;2024-01-27T11:07:05;8.40;85.90
39975;DHT22;25652;52.852;6.602;2024-01-27T11:09:31;8.40;85.60
39975;DHT22;25652;52.852;6.602;2024-01-27T11:11:56;8.60;85.80
39975;DHT22;25652;52.852;6.602;2024-01-27T11:14:22;8.60;85.70
39975;DHT22;25652;52.852;6.602;2024-01-27T11:16:48;8.70;85.70
39975;DHT22;25652;52.852;6.602;2024-01-27T11:19:19;8.70;85.80
39975;DHT22;25652;52.852;6.602;2024-01-27T11:21:44;8.80;86.00
39975;DHT22;25652;52.852;6.602;2024-01-27T11:24:17;8.90;86.00
39975;DHT22;25652;52.852;6.602;2024-01-27T11:26:44;9.00;85.90
39975;DHT22;25652;52.852;6.602;2024-01-27T11:29:09;9.00;85.80
39975;DHT22;25652;52.852;6.602;2024-01-27T11:31:35;9.10;86.00
39975;DHT22;25652;52.852;6.602;2024-01-27T11:34:00;9.20;86.10
39975;DHT22;25652;52.852;6.602;2024-01-27T11:36:27;9.20;86.20
39975;DHT22;25652;52.852;6.602;2024-01-27T11:38:53;9.30;86.20
39975;DHT22;25652;52.852;6.602;2024-01-27T11:41:29;9.40;86.40
39975;DHT22;25652;52.852;6.602;2024-01-27T11:43:55;9.40;86.10
39975;DHT22;25652;52.852;6.602;2024-01-27T11:46:21;9.50;86.30
39975;DHT22;25652;52.852;6.602;2024-01-27T11:48:47;9.60;86.10
39975;DHT22;25652;52.852;6.602;2024-01-27T11:51:13;9.60;86.10
39975;DHT22;25652;52.852;6.602;2024-01-27T11:53:39;9.70;86.10
39975;DHT22;25652;52.852;6.602;2024-01-27T11:56:05;9.70;86.00
39975;DHT22;25652;52.852;6.602;2024-01-27T11:58:31;9.90;85.60
39975;DHT22;25652;52.852;6.602;2024-01-27T12:00:57;9.90;85.60
39975;DHT22;25652;52.852;6.602;2024-01-27T12:03:23;10.00;85.70
39975;DHT22;25652;52.852;6.602;2024-01-27T12:05:48;10.00;85.50
39975;DHT22;25652;52.852;6.602;2024-01-27T12:08:14;10.10;85.40
39975;DHT22;25652;52.852;6.602;2024-01-27T12:10:39;10.10;85.20
39975;DHT22;25652;52.852;6.602;2024-01-27T12:13:05;10.20;85.40
39975;DHT22;25652;52.852;6.602;2024-01-27T12:15:30;10.30;85.40
39975;DHT22;25652;52.852;6.602;2024-01-27T12:17:56;10.30;85.20
39975;DHT22;25652;52.852;6.602;2024-01-27T12:20:25;10.30;85.00
39975;DHT22;25652;52.852;6.602;2024-01-27T12:23:04;10.40;85.60
39975;DHT22;25652;52.852;6.602;2024-01-27T12:25:29;10.50;85.30
39975;DHT22;25652;52.852;6.602;2024-01-27T12:27:55;10.50;85.00
39975;DHT22;25652;52.852;6.602;2024-01-27T12:30:21;10.60;85.00
39975;DHT22;25652;52.852;6.602;2024-01-27T12:32:47;10.60;85.10
39975;DHT22;25652;52.852;6.602;2024-01-27T12:35:13;10.60;84.80
39975;DHT22;25652;52.852;6.602;2024-01-27T12:37:38;10.70;84.70
39975;DHT22;25652;52.852;6.602;2024-01-27T12:40:23;10.70;84.80
39975;DHT22;25652;52.852;6.602;2024-01-27T12:42:49;10.80;84.80
39975;DHT22;25652;52.852;6.602;2024-01-27T12:45:14;10.80;84.90
39975;DHT22;25652;52.852;6.602;2024-01-27T12:47:40;10.80;84.70
39975;DHT22;25652;52.852;6.602;2024-01-27T12:50:06;10.90;85.00
39975;DHT22;25652;52.852;6.602;2024-01-27T12:52:32;10.90;84.90
39975;DHT22;25652;52.852;6.602;2024-01-27T12:54:57;10.90;84.90
39975;DHT22;25652;52.852;6.602;2024-01-27T12:57:23;11.00;84.90
39975;DHT22;25652;52.852;6.602;2024-01-27T12:59:48;11.00;85.00
39975;DHT22;25652;52.852;6.602;2024-01-27T13:02:14;11.00;85.20
39975;DHT22;25652;52.852;6.602;2024-01-27T13:04:39;11.00;85.00
39975;DHT22;25652;52.852;6.602;2024-01-27T13:07:05;11.00;85.20
39975;DHT22;25652;52.852;6.602;2024-01-27T13:09:30;11.10;85.00
39975;DHT22;25652;52.852;6.602;2024-01-27T13:11:56;11.10;85.00
39975;DHT22;25652;52.852;6.602;2024-01-27T13:14:21;11.10;85.00
39975;DHT22;25652;52.852;6.602;2024-01-27T13:16:47;11.20;85.10
39975;DHT22;25652;52.852;6.602;2024-01-27T13:19:12;11.20;85.10
39975;DHT22;25652;52.852;6.602;2024-01-27T13:21:38;11.20;85.00
39975;DHT22;25652;52.852;6.602;2024-01-27T13:24:03;11.20;85.10
39975;DHT22;25652;52.852;6.602;2024-01-27T13:26:29;11.20;85.00
39975;DHT22;25652;52.852;6.602;2024-01-27T13:28:54;11.20;85.10
39975;DHT22;25652;52.852;6.602;2024-01-27T13:31:20;11.30;85.30
39975;DHT22;25652;52.852;6.602;2024-01-27T13:33:45;11.30;85.30
39975;DHT22;25652;52.852;6.602;2024-01-27T13:36:11;11.20;85.20
39975;DHT22;25652;52.852;6.602;2024-01-27T13:38:36;11.20;85.40
39975;DHT22;25652;52.852;6.602;2024-01-27T13:41:02;11.20;85.50
39975;DHT22;25652;52.852;6.602;2024-01-27T13:43:27;11.30;85.60
39975;DHT22;25652;52.852;6.602;2024-01-27T13:45:53;11.20;86.00
39975;DHT22;25652;52.852;6.602;2024-01-27T13:48:18;11.30;86.20
39975;DHT22;25652;52.852;6.602;2024-01-27T13:50:44;11.30;86.20
39975;DHT22;25652;52.852;6.602;2024-01-27T13:53:09;11.30;86.70
39975;DHT22;25652;52.852;6.602;2024-01-27T13:55:35;11.30;86.30
39975;DHT22;25652;52.852;6.602;2024-01-27T13:58:00;11.20;86.60
39975;DHT22;25652;52.852;6.602;2024-01-27T14:00:26;11.20;86.70
39975;DHT22;25652;52.852;6.602;2024-01-27T14:02:51;11.20;86.80
39975;DHT22;25652;52.852;6.602;2024-01-27T14:05:17;11.20;86.90
39975;DHT22;25652;52.852;6.602;2024-01-27T14:07:42;11.10;87.00
39975;DHT22;25652;52.852;6.602;2024-01-27T14:10:08;11.10;87.10
39975;DHT22;25652;52.852;6.602;2024-01-27T14:12:34;11.10;87.20
39975;DHT22;25652;52.852;6.602;2024-01-27T14:15:06;11.10;87.40
39975;DHT22;25652;52.852;6.602;2024-01-27T14:17:31;11.00;87.20
39975;DHT22;25652;52.852;6.602;2024-01-27T14:19:57;11.00;87.30
39975;DHT22;25652;52.852;6.602;2024-01-27T14:22:22;10.90;87.20
39975;DHT22;25652;52.852;6.602;2024-01-27T14:24:47;10.90;87.10
39975;DHT22;25652;52.852;6.602;2024-01-27T14:27:13;10.80;86.90
39975;DHT22;25652;52.852;6.602;2024-01-27T14:29:38;10.80;87.10
39975;DHT22;25652;52.852;6.602;2024-01-27T14:32:04;10.80;86.90
39975;DHT22;25652;52.852;6.602;2024-01-27T14:34:30;10.70;86.60
39975;DHT22;25652;52.852;6.602;2024-01-27T14:36:55;10.70;86.40
39975;DHT22;25652;52.852;6.602;2024-01-27T14:39:21;10.60;86.80
39975;DHT22;25652;52.852;6.602;2024-01-27T14:41:46;10.60;86.40
39975;DHT22;25652;52.852;6.602;2024-01-27T14:44:12;10.50;86.40
39975;DHT22;25652;52.852;6.602;2024-01-27T14:46:38;10.50;86.20
39975;DHT22;25652;52.852;6.602;2024-01-27T14:49:03;10.40;86.20
39975;DHT22;25652;52.852;6.602;2024-01-27T14:51:29;10.40;86.40
39975;DHT22;25652;52.852;6.602;2024-01-27T14:53:54;10.40;86.40
39975;DHT22;25652;52.852;6.602;2024-01-27T14:56:19;10.30;86.40
39975;DHT22;25652;52.852;6.602;2024-01-27T14:58:45;10.20;86.30
39975;DHT22;25652;52.852;6.602;2024-01-27T15:01:10;10.20;86.60
39975;DHT22;25652;52.852;6.602;2024-01-27T15:03:36;10.20;86.50
39975;DHT22;25652;52.852;6.602;2024-01-27T15:06:01;10.20;86.50
39975;DHT22;25652;52.852;6.602;2024-01-27T15:08:27;10.10;86.70
39975;DHT22;25652;52.852;6.602;2024-01-27T15:10:52;10.00;86.60
39975;DHT22;25652;52.852;6.602;2024-01-27T15:13:18;10.00;86.60
39975;DHT22;25652;52.852;6.602;2024-01-27T15:15:43;9.90;86.80
39975;DHT22;25652;52.852;6.602;2024-01-27T15:18:09;9.80;86.80
39975;DHT22;25652;52.852;6.602;2024-01-27T15:20:35;9.80;87.00
39975;DHT22;25652;52.852;6.602;2024-01-27T15:23:00;9.70;87.20
39975;DHT22;25652;52.852;6.602;2024-01-27T15:25:26;9.70;87.20
39975;DHT22;25652;52.852;6.602;2024-01-27T15:27:51;9.60;87.40
39975;DHT22;25652;52.852;6.602;2024-01-27T15:30:17;9.60;87.40
39975;DHT22;25652;52.852;6.602;2024-01-27T15:32:48;9.60;87.60
39975;DHT22;25652;52.852;6.602;2024-01-27T15:35:14;9.50;87.50
39975;DHT22;25652;52.852;6.602;2024-01-27T15:37:39;9.50;87.50
39975;DHT22;25652;52.852;6.602;2024-01-27T15:40:06;9.40;87.60
39975;DHT22;25652;52.852;6.602;2024-01-27T15:42:31;9.30;87.90
39975;DHT22;25652;52.852;6.602;2024-01-27T15:44:57;9.30;88.10
39975;DHT22;25652;52.852;6.602;2024-01-27T15:47:22;9.20;88.20
39975;DHT22;25652;52.852;6.602;2024-01-27T15:49:48;9.20;88.30
39975;DHT22;25652;52.852;6.602;2024-01-27T15:52:13;9.20;88.40
39975;DHT22;25652;52.852;6.602;2024-01-27T15:54:39;9.10;88.40